sensor_id;sensor_type;location;lat;lon;timestamp;P1;durP1;ratioP1;P2;durP2;ratioP2
66559;SDS011;53413;49.878;8.142;2023-02-14T00:01:46;28.98;;;9.95;;
66559;SDS011;53413;49.878;8.142;2023-02-14T00:04:13;28.50;;;10.30;;
66559;SDS011;53413;49.878;8.142;2023-02-14T00:06:39;29.65;;;10.23;;
66559;SDS011;53413;49.878;8.142;2023-02-14T00:09:06;31.53;;;10.67;;
66559;SDS011;53413;49.878;8.142;2023-02-14T00:11:34;28.77;;;10.57;;
66559;SDS011;53413;49.878;8.142;2023-02-14T00:13:59;30.07;;;10.63;;
66559;SDS011;53413;49.878;8.142;2023-02-14T00:16:43;29.73;;;10.68;;
66559;SDS011;53413;49.878;8.142;2023-02-14T00:19:10;30.97;;;11.10;;
66559;SDS011;53413;49.878;8.142;2023-02-14T00:21:37;29.45;;;10.80;;
66559;SDS011;53413;49.878;8.142;2023-02-14T00:24:04;27.58;;;10.68;;
66559;SDS011;53413;49.878;8.142;2023-02-14T00:26:31;28.35;;;10.60;;
66559;SDS011;53413;49.878;8.142;2023-02-14T00:28:57;28.77;;;10.13;;
66559;SDS011;53413;49.878;8.142;2023-02-14T00:31:22;27.27;;;10.23;;
66559;SDS011;53413;49.878;8.142;2023-02-14T00:33:48;29.23;;;11.00;;
66559;SDS011;53413;49.878;8.142;2023-02-14T00:36:13;31.35;;;10.95;;
66559;SDS011;53413;49.878;8.142;2023-02-14T00:38:41;29.93;;;10.90;;
66559;SDS011;53413;49.878;8.142;2023-02-14T00:41:06;30.00;;;10.63;;
66559;SDS011;53413;49.878;8.142;2023-02-14T00:43:32;29.35;;;10.40;;
66559;SDS011;53413;49.878;8.142;2023-02-14T00:45:57;27.37;;;10.53;;
66559;SDS011;53413;49.878;8.142;2023-02-14T00:48:22;31.40;;;11.13;;
66559;SDS011;53413;49.878;8.142;2023-02-14T00:50:48;32.80;;;11.17;;
66559;SDS011;53413;49.878;8.142;2023-02-14T00:53:13;34.70;;;11.57;;
66559;SDS011;53413;49.878;8.142;2023-02-14T00:55:38;31.10;;;11.20;;
66559;SDS011;53413;49.878;8.142;2023-02-14T00:58:04;28.70;;;10.07;;
66559;SDS011;53413;49.878;8.142;2023-02-14T01:00:29;27.02;;;10.25;;
66559;SDS011;53413;49.878;8.142;2023-02-14T01:02:55;28.13;;;10.63;;
66559;SDS011;53413;49.878;8.142;2023-02-14T01:05:20;27.33;;;10.43;;
66559;SDS011;53413;49.878;8.142;2023-02-14T01:07:45;30.87;;;11.07;;
66559;SDS011;53413;49.878;8.142;2023-02-14T01:10:11;31.23;;;11.10;;
66559;SDS011;53413;49.878;8.142;2023-02-14T01:12:37;30.50;;;11.50;;
66559;SDS011;53413;49.878;8.142;2023-02-14T01:15:02;30.73;;;11.20;;
66559;SDS011;53413;49.878;8.142;2023-02-14T01:17:28;30.92;;;11.25;;
66559;SDS011;53413;49.878;8.142;2023-02-14T01:19:53;31.00;;;11.27;;
66559;SDS011;53413;49.878;8.142;2023-02-14T01:22:19;29.63;;;11.03;;
66559;SDS011;53413;49.878;8.142;2023-02-14T01:24:44;30.93;;;11.13;;
66559;SDS011;53413;49.878;8.142;2023-02-14T01:27:10;30.37;;;10.97;;
66559;SDS011;53413;49.878;8.142;2023-02-14T01:29:35;30.67;;;11.43;;
66559;SDS011;53413;49.878;8.142;2023-02-14T01:32:00;31.05;;;11.18;;
66559;SDS011;53413;49.878;8.142;2023-02-14T01:34:26;32.17;;;11.40;;
66559;SDS011;53413;49.878;8.142;2023-02-14T01:36:51;33.20;;;11.83;;
66559;SDS011;53413;49.878;8.142;2023-02-14T01:39:17;32.43;;;11.70;;
66559;SDS011;53413;49.878;8.142;2023-02-14T01:41:43;33.87;;;11.97;;
66559;SDS011;53413;49.878;8.142;2023-02-14T01:46:37;36.27;;;11.80;;
66559;SDS011;53413;49.878;8.142;2023-02-14T01:52:06;33.37;;;11.83;;
66559;SDS011;53413;49.878;8.142;2023-02-14T01:54:37;38.10;;;12.65;;
66559;SDS011;53413;49.878;8.142;2023-02-14T01:57:07;33.75;;;11.88;;
66559;SDS011;53413;49.878;8.142;2023-02-14T01:59:37;36.15;;;12.13;;
66559;SDS011;53413;49.878;8.142;2023-02-14T02:02:07;34.28;;;12.02;;
66559;SDS011;53413;49.878;8.142;2023-02-14T02:04:34;31.67;;;11.97;;
66559;SDS011;53413;49.878;8.142;2023-02-14T02:07:04;36.47;;;12.68;;
66559;SDS011;53413;49.878;8.142;2023-02-14T02:09:34;36.53;;;12.10;;
66559;SDS011;53413;49.878;8.142;2023-02-14T02:12:03;35.63;;;12.13;;
66559;SDS011;53413;49.878;8.142;2023-02-14T02:14:28;36.13;;;11.97;;
66559;SDS011;53413;49.878;8.142;2023-02-14T02:17:15;36.20;;;11.67;;
66559;SDS011;53413;49.878;8.142;2023-02-14T02:49:50;53.92;;;16.02;;
66559;SDS011;53413;49.878;8.142;2023-02-14T02:58:18;119.70;;;18.43;;
66559;SDS011;53413;49.878;8.142;2023-02-14T03:00:46;63.10;;;16.90;;
66559;SDS011;53413;49.878;8.142;2023-02-14T03:03:15;59.95;;;16.50;;
66559;SDS011;53413;49.878;8.142;2023-02-14T03:05:59;62.40;;;16.25;;
66559;SDS011;53413;49.878;8.142;2023-02-14T03:08:25;52.90;;;15.60;;
66559;SDS011;53413;49.878;8.142;2023-02-14T03:10:50;58.93;;;16.30;;
66559;SDS011;53413;49.878;8.142;2023-02-14T03:27:01;49.30;;;14.85;;
66559;SDS011;53413;49.878;8.142;2023-02-14T03:29:35;49.73;;;14.40;;
66559;SDS011;53413;49.878;8.142;2023-02-14T03:32:29;55.67;;;15.70;;
66559;SDS011;53413;49.878;8.142;2023-02-14T03:35:04;53.45;;;15.32;;
66559;SDS011;53413;49.878;8.142;2023-02-14T03:37:37;62.90;;;15.48;;
66559;SDS011;53413;49.878;8.142;2023-02-14T03:43:01;95.27;;;18.40;;
66559;SDS011;53413;49.878;8.142;2023-02-14T03:45:32;134.00;;;19.83;;
66559;SDS011;53413;49.878;8.142;2023-02-14T03:48:03;89.68;;;17.10;;
66559;SDS011;53413;49.878;8.142;2023-02-14T03:50:33;126.18;;;18.85;;
66559;SDS011;53413;49.878;8.142;2023-02-14T03:53:02;103.80;;;18.27;;
66559;SDS011;53413;49.878;8.142;2023-02-14T03:55:35;114.93;;;18.67;;
66559;SDS011;53413;49.878;8.142;2023-02-14T03:58:40;129.90;;;19.40;;
66559;SDS011;53413;49.878;8.142;2023-02-14T04:03:45;96.50;;;18.63;;
66559;SDS011;53413;49.878;8.142;2023-02-14T04:06:12;92.75;;;18.13;;
66559;SDS011;53413;49.878;8.142;2023-02-14T04:08:38;91.30;;;18.83;;
66559;SDS011;53413;49.878;8.142;2023-02-14T04:11:03;96.67;;;19.07;;
66559;SDS011;53413;49.878;8.142;2023-02-14T04:13:29;78.72;;;17.73;;
66559;SDS011;53413;49.878;8.142;2023-02-14T04:15:55;85.07;;;18.53;;
66559;SDS011;53413;49.878;8.142;2023-02-14T04:18:21;58.47;;;17.42;;
66559;SDS011;53413;49.878;8.142;2023-02-14T04:21:05;55.88;;;16.45;;
66559;SDS011;53413;49.878;8.142;2023-02-14T04:23:30;57.03;;;17.17;;
66559;SDS011;53413;49.878;8.142;2023-02-14T04:25:56;55.83;;;16.53;;
66559;SDS011;53413;49.878;8.142;2023-02-14T04:28:21;65.80;;;16.73;;
66559;SDS011;53413;49.878;8.142;2023-02-14T04:30:47;56.53;;;16.75;;
66559;SDS011;53413;49.878;8.142;2023-02-14T04:33:12;75.63;;;17.57;;
66559;SDS011;53413;49.878;8.142;2023-02-14T04:35:37;81.97;;;16.67;;
66559;SDS011;53413;49.878;8.142;2023-02-14T04:38:03;78.20;;;16.33;;
66559;SDS011;53413;49.878;8.142;2023-02-14T04:40:29;97.30;;;17.43;;
66559;SDS011;53413;49.878;8.142;2023-02-14T04:42:54;108.85;;;17.65;;
66559;SDS011;53413;49.878;8.142;2023-02-14T04:45:20;72.43;;;16.43;;
66559;SDS011;53413;49.878;8.142;2023-02-14T04:47:45;111.07;;;17.90;;
66559;SDS011;53413;49.878;8.142;2023-02-14T04:50:11;91.60;;;16.98;;
66559;SDS011;53413;49.878;8.142;2023-02-14T04:52:36;166.95;;;19.98;;
66559;SDS011;53413;49.878;8.142;2023-02-14T04:55:02;175.23;;;20.67;;
66559;SDS011;53413;49.878;8.142;2023-02-14T04:57:34;129.23;;;18.27;;
66559;SDS011;53413;49.878;8.142;2023-02-14T04:59:59;190.83;;;20.87;;
66559;SDS011;53413;49.878;8.142;2023-02-14T05:02:25;122.85;;;17.73;;
66559;SDS011;53413;49.878;8.142;2023-02-14T05:04:50;134.20;;;19.63;;
66559;SDS011;53413;49.878;8.142;2023-02-14T05:07:16;91.43;;;17.27;;
66559;SDS011;53413;49.878;8.142;2023-02-14T05:09:41;86.77;;;16.23;;
66559;SDS011;53413;49.878;8.142;2023-02-14T05:12:06;115.70;;;18.53;;
66559;SDS011;53413;49.878;8.142;2023-02-14T05:14:32;141.85;;;20.05;;
66559;SDS011;53413;49.878;8.142;2023-02-14T05:16:57;93.13;;;16.83;;
66559;SDS011;53413;49.878;8.142;2023-02-14T05:19:23;81.73;;;17.73;;
66559;SDS011;53413;49.878;8.142;2023-02-14T05:21:48;87.90;;;17.37;;
66559;SDS011;53413;49.878;8.142;2023-02-14T05:24:16;82.53;;;15.77;;
66559;SDS011;53413;49.878;8.142;2023-02-14T05:26:42;91.70;;;16.03;;
66559;SDS011;53413;49.878;8.142;2023-02-14T05:29:07;99.63;;;16.43;;
66559;SDS011;53413;49.878;8.142;2023-02-14T05:31:33;87.22;;;17.00;;
66559;SDS011;53413;49.878;8.142;2023-02-14T05:33:58;118.83;;;17.63;;
66559;SDS011;53413;49.878;8.142;2023-02-14T05:36:23;138.70;;;17.10;;
66559;SDS011;53413;49.878;8.142;2023-02-14T05:38:49;99.80;;;16.17;;
66559;SDS011;53413;49.878;8.142;2023-02-14T05:41:14;85.53;;;16.97;;
66559;SDS011;53413;49.878;8.142;2023-02-14T05:43:39;85.33;;;17.00;;
66559;SDS011;53413;49.878;8.142;2023-02-14T05:46:05;126.83;;;19.47;;
66559;SDS011;53413;49.878;8.142;2023-02-14T05:48:30;107.63;;;18.25;;
66559;SDS011;53413;49.878;8.142;2023-02-14T05:50:55;106.25;;;17.02;;
66559;SDS011;53413;49.878;8.142;2023-02-14T05:53:21;108.33;;;18.03;;
66559;SDS011;53413;49.878;8.142;2023-02-14T05:55:47;80.30;;;16.80;;
66559;SDS011;53413;49.878;8.142;2023-02-14T05:58:12;112.30;;;18.23;;
66559;SDS011;53413;49.878;8.142;2023-02-14T06:00:38;115.50;;;18.40;;
66559;SDS011;53413;49.878;8.142;2023-02-14T06:03:04;134.05;;;19.35;;
66559;SDS011;53413;49.878;8.142;2023-02-14T06:05:29;105.77;;;17.03;;
66559;SDS011;53413;49.878;8.142;2023-02-14T06:07:55;88.30;;;15.97;;
66559;SDS011;53413;49.878;8.142;2023-02-14T06:10:20;122.00;;;18.53;;
66559;SDS011;53413;49.878;8.142;2023-02-14T06:12:47;116.05;;;17.67;;
66559;SDS011;53413;49.878;8.142;2023-02-14T06:15:14;118.85;;;18.00;;
66559;SDS011;53413;49.878;8.142;2023-02-14T06:17:39;119.43;;;19.17;;
66559;SDS011;53413;49.878;8.142;2023-02-14T06:20:05;112.93;;;17.47;;
66559;SDS011;53413;49.878;8.142;2023-02-14T06:22:33;137.50;;;18.75;;
66559;SDS011;53413;49.878;8.142;2023-02-14T06:24:58;94.00;;;17.13;;
66559;SDS011;53413;49.878;8.142;2023-02-14T06:27:24;145.17;;;19.03;;
66559;SDS011;53413;49.878;8.142;2023-02-14T06:29:49;108.43;;;16.63;;
66559;SDS011;53413;49.878;8.142;2023-02-14T06:32:15;134.75;;;18.20;;
66559;SDS011;53413;49.878;8.142;2023-02-14T06:34:40;168.93;;;19.20;;
66559;SDS011;53413;49.878;8.142;2023-02-14T06:37:06;152.27;;;18.93;;
66559;SDS011;53413;49.878;8.142;2023-02-14T06:39:32;147.10;;;18.90;;
66559;SDS011;53413;49.878;8.142;2023-02-14T06:41:57;236.70;;;28.60;;
66559;SDS011;53413;49.878;8.142;2023-02-14T06:44:22;145.87;;;19.20;;
66559;SDS011;53413;49.878;8.142;2023-02-14T06:46:49;180.07;;;20.75;;
66559;SDS011;53413;49.878;8.142;2023-02-14T06:49:14;250.53;;;24.83;;
66559;SDS011;53413;49.878;8.142;2023-02-14T06:51:40;198.50;;;25.30;;
66559;SDS011;53413;49.878;8.142;2023-02-14T06:54:05;149.67;;;22.73;;
66559;SDS011;53413;49.878;8.142;2023-02-14T06:56:30;214.40;;;25.60;;
66559;SDS011;53413;49.878;8.142;2023-02-14T06:58:56;135.70;;;21.52;;
66559;SDS011;53413;49.878;8.142;2023-02-14T07:01:21;153.57;;;21.97;;
66559;SDS011;53413;49.878;8.142;2023-02-14T07:03:46;138.63;;;22.80;;
66559;SDS011;53413;49.878;8.142;2023-02-14T07:06:12;201.40;;;25.20;;
66559;SDS011;53413;49.878;8.142;2023-02-14T07:08:37;150.00;;;22.80;;
66559;SDS011;53413;49.878;8.142;2023-02-14T07:11:02;204.53;;;24.90;;
66559;SDS011;53413;49.878;8.142;2023-02-14T07:13:28;195.03;;;29.77;;
66559;SDS011;53413;49.878;8.142;2023-02-14T07:15:53;177.40;;;28.00;;
66559;SDS011;53413;49.878;8.142;2023-02-14T07:18:19;204.32;;;28.52;;
66559;SDS011;53413;49.878;8.142;2023-02-14T07:20:44;212.17;;;28.17;;
66559;SDS011;53413;49.878;8.142;2023-02-14T07:23:09;149.07;;;25.73;;
66559;SDS011;53413;49.878;8.142;2023-02-14T07:25:35;167.67;;;26.23;;
66559;SDS011;53413;49.878;8.142;2023-02-14T07:28:01;170.20;;;28.63;;
66559;SDS011;53413;49.878;8.142;2023-02-14T07:30:27;103.18;;;20.00;;
66559;SDS011;53413;49.878;8.142;2023-02-14T07:32:52;87.70;;;14.47;;
66559;SDS011;53413;49.878;8.142;2023-02-14T07:35:18;74.32;;;14.38;;
66559;SDS011;53413;49.878;8.142;2023-02-14T07:37:44;123.53;;;14.43;;
66559;SDS011;53413;49.878;8.142;2023-02-14T07:40:09;142.07;;;15.40;;
66559;SDS011;53413;49.878;8.142;2023-02-14T07:42:35;79.63;;;13.07;;
66559;SDS011;53413;49.878;8.142;2023-02-14T07:45:00;107.00;;;13.80;;
66559;SDS011;53413;49.878;8.142;2023-02-14T07:47:26;70.55;;;13.52;;
66559;SDS011;53413;49.878;8.142;2023-02-14T07:49:51;80.77;;;13.10;;
66559;SDS011;53413;49.878;8.142;2023-02-14T07:52:16;124.20;;;14.03;;
66559;SDS011;53413;49.878;8.142;2023-02-14T07:54:42;92.23;;;13.90;;
66559;SDS011;53413;49.878;8.142;2023-02-14T07:57:07;79.37;;;14.63;;
66559;SDS011;53413;49.878;8.142;2023-02-14T07:59:32;57.07;;;13.57;;
66559;SDS011;53413;49.878;8.142;2023-02-14T08:01:58;53.30;;;13.80;;
66559;SDS011;53413;49.878;8.142;2023-02-14T08:04:23;45.93;;;12.20;;
66559;SDS011;53413;49.878;8.142;2023-02-14T08:06:52;50.70;;;12.90;;
66559;SDS011;53413;49.878;8.142;2023-02-14T08:09:18;46.33;;;12.70;;
66559;SDS011;53413;49.878;8.142;2023-02-14T08:11:50;44.13;;;12.93;;
66559;SDS011;53413;49.878;8.142;2023-02-14T08:14:35;43.58;;;12.23;;
66559;SDS011;53413;49.878;8.142;2023-02-14T08:17:00;39.00;;;12.13;;
66559;SDS011;53413;49.878;8.142;2023-02-14T08:19:26;43.10;;;13.02;;
66559;SDS011;53413;49.878;8.142;2023-02-14T08:21:52;44.17;;;12.27;;
66559;SDS011;53413;49.878;8.142;2023-02-14T08:24:17;42.05;;;12.57;;
66559;SDS011;53413;49.878;8.142;2023-02-14T08:26:43;47.67;;;13.17;;
66559;SDS011;53413;49.878;8.142;2023-02-14T08:29:08;44.90;;;13.30;;
66559;SDS011;53413;49.878;8.142;2023-02-14T08:31:33;45.93;;;12.33;;
66559;SDS011;53413;49.878;8.142;2023-02-14T08:33:59;43.27;;;12.77;;
66559;SDS011;53413;49.878;8.142;2023-02-14T08:36:24;50.20;;;13.33;;
66559;SDS011;53413;49.878;8.142;2023-02-14T08:38:49;48.90;;;12.60;;
66559;SDS011;53413;49.878;8.142;2023-02-14T08:41:15;43.00;;;12.53;;
66559;SDS011;53413;49.878;8.142;2023-02-14T08:43:41;45.65;;;12.30;;
66559;SDS011;53413;49.878;8.142;2023-02-14T08:46:07;51.35;;;13.05;;
66559;SDS011;53413;49.878;8.142;2023-02-14T08:48:33;56.00;;;13.13;;
66559;SDS011;53413;49.878;8.142;2023-02-14T08:51:03;60.50;;;12.48;;
66559;SDS011;53413;49.878;8.142;2023-02-14T08:53:32;65.35;;;13.45;;
66559;SDS011;53413;49.878;8.142;2023-02-14T08:56:04;65.80;;;13.87;;
66559;SDS011;53413;49.878;8.142;2023-02-14T08:58:30;53.55;;;13.80;;
66559;SDS011;53413;49.878;8.142;2023-02-14T09:00:56;68.03;;;13.55;;
66559;SDS011;53413;49.878;8.142;2023-02-14T09:03:22;57.40;;;13.82;;
66559;SDS011;53413;49.878;8.142;2023-02-14T09:05:48;89.90;;;14.90;;
66559;SDS011;53413;49.878;8.142;2023-02-14T09:08:13;52.47;;;13.33;;
66559;SDS011;53413;49.878;8.142;2023-02-14T09:10:38;68.60;;;13.93;;
66559;SDS011;53413;49.878;8.142;2023-02-14T09:13:04;83.50;;;14.27;;
66559;SDS011;53413;49.878;8.142;2023-02-14T09:15:29;63.33;;;13.87;;
66559;SDS011;53413;49.878;8.142;2023-02-14T09:17:54;69.50;;;14.17;;
66559;SDS011;53413;49.878;8.142;2023-02-14T09:20:20;57.00;;;15.13;;
66559;SDS011;53413;49.878;8.142;2023-02-14T09:22:45;61.47;;;13.55;;
66559;SDS011;53413;49.878;8.142;2023-02-14T09:25:11;50.93;;;13.23;;
66559;SDS011;53413;49.878;8.142;2023-02-14T09:27:36;53.67;;;14.07;;
66559;SDS011;53413;49.878;8.142;2023-02-14T09:30:02;77.97;;;14.65;;
66559;SDS011;53413;49.878;8.142;2023-02-14T09:32:29;55.72;;;13.63;;
66559;SDS011;53413;49.878;8.142;2023-02-14T09:34:55;61.65;;;14.88;;
66559;SDS011;53413;49.878;8.142;2023-02-14T09:37:38;52.03;;;13.55;;
66559;SDS011;53413;49.878;8.142;2023-02-14T09:40:22;47.10;;;13.10;;
66559;SDS011;53413;49.878;8.142;2023-02-14T09:42:55;49.95;;;13.25;;
66559;SDS011;53413;49.878;8.142;2023-02-14T09:45:25;53.85;;;13.48;;
66559;SDS011;53413;49.878;8.142;2023-02-14T09:48:05;52.08;;;13.25;;
66559;SDS011;53413;49.878;8.142;2023-02-14T09:55:42;56.33;;;14.10;;
66559;SDS011;53413;49.878;8.142;2023-02-14T09:58:25;66.97;;;14.02;;
66559;SDS011;53413;49.878;8.142;2023-02-14T10:00:57;46.88;;;13.30;;
66559;SDS011;53413;49.878;8.142;2023-02-14T10:11:55;42.03;;;11.45;;
66559;SDS011;53413;49.878;8.142;2023-02-14T10:14:28;38.20;;;11.82;;
66559;SDS011;53413;49.878;8.142;2023-02-14T10:19:32;38.57;;;10.90;;
66559;SDS011;53413;49.878;8.142;2023-02-14T10:22:07;41.35;;;11.27;;
66559;SDS011;53413;49.878;8.142;2023-02-14T10:27:44;32.88;;;10.45;;
66559;SDS011;53413;49.878;8.142;2023-02-14T10:30:11;40.60;;;12.15;;
66559;SDS011;53413;49.878;8.142;2023-02-14T10:41:24;37.25;;;10.73;;
66559;SDS011;53413;49.878;8.142;2023-02-14T10:44:45;44.35;;;12.18;;
66559;SDS011;53413;49.878;8.142;2023-02-14T10:55:51;36.50;;;10.48;;
66559;SDS011;53413;49.878;8.142;2023-02-14T10:58:25;36.80;;;10.73;;
66559;SDS011;53413;49.878;8.142;2023-02-14T11:01:00;37.10;;;10.97;;
66559;SDS011;53413;49.878;8.142;2023-02-14T11:03:29;36.63;;;11.20;;
66559;SDS011;53413;49.878;8.142;2023-02-14T11:05:55;36.57;;;10.17;;
66559;SDS011;53413;49.878;8.142;2023-02-14T11:10:48;41.13;;;12.32;;
66559;SDS011;53413;49.878;8.142;2023-02-14T11:15:51;40.10;;;11.10;;
66559;SDS011;53413;49.878;8.142;2023-02-14T11:18:22;42.50;;;11.63;;
66559;SDS011;53413;49.878;8.142;2023-02-14T11:21:02;38.78;;;11.57;;
66559;SDS011;53413;49.878;8.142;2023-02-14T11:23:35;41.85;;;11.85;;
66559;SDS011;53413;49.878;8.142;2023-02-14T11:26:04;41.17;;;12.18;;
66559;SDS011;53413;49.878;8.142;2023-02-14T11:28:34;39.97;;;11.33;;
66559;SDS011;53413;49.878;8.142;2023-02-14T11:30:59;38.38;;;11.57;;
66559;SDS011;53413;49.878;8.142;2023-02-14T11:33:33;41.88;;;11.65;;
66559;SDS011;53413;49.878;8.142;2023-02-14T11:35:59;35.60;;;11.80;;
66559;SDS011;53413;49.878;8.142;2023-02-14T11:38:30;40.45;;;11.95;;
66559;SDS011;53413;49.878;8.142;2023-02-14T11:40:59;37.70;;;11.32;;
66559;SDS011;53413;49.878;8.142;2023-02-14T11:43:33;40.95;;;11.68;;
66559;SDS011;53413;49.878;8.142;2023-02-14T11:46:46;37.13;;;11.23;;
66559;SDS011;53413;49.878;8.142;2023-02-14T11:52:07;39.72;;;11.20;;
66559;SDS011;53413;49.878;8.142;2023-02-14T11:54:12;44.25;;;12.75;;
66559;SDS011;53413;49.878;8.142;2023-02-14T11:56:50;39.05;;;11.77;;
66559;SDS011;53413;49.878;8.142;2023-02-14T11:59:41;40.05;;;11.85;;
66559;SDS011;53413;49.878;8.142;2023-02-14T12:02:21;40.77;;;11.67;;
66559;SDS011;53413;49.878;8.142;2023-02-14T12:04:48;40.00;;;11.73;;
66559;SDS011;53413;49.878;8.142;2023-02-14T12:07:27;39.92;;;11.95;;
66559;SDS011;53413;49.878;8.142;2023-02-14T12:12:30;40.50;;;12.23;;
66559;SDS011;53413;49.878;8.142;2023-02-14T12:15:10;39.97;;;11.73;;
66559;SDS011;53413;49.878;8.142;2023-02-14T12:17:47;38.60;;;11.40;;
66559;SDS011;53413;49.878;8.142;2023-02-14T12:20:22;39.58;;;11.65;;
66559;SDS011;53413;49.878;8.142;2023-02-14T12:23:04;40.30;;;13.25;;
66559;SDS011;53413;49.878;8.142;2023-02-14T12:25:58;36.25;;;11.13;;
66559;SDS011;53413;49.878;8.142;2023-02-14T12:28:39;39.67;;;11.48;;
66559;SDS011;53413;49.878;8.142;2023-02-14T12:31:10;38.57;;;11.93;;
66559;SDS011;53413;49.878;8.142;2023-02-14T12:33:36;36.00;;;11.13;;
66559;SDS011;53413;49.878;8.142;2023-02-14T12:44:04;38.23;;;11.80;;
66559;SDS011;53413;49.878;8.142;2023-02-14T12:57:59;36.83;;;12.07;;
66559;SDS011;53413;49.878;8.142;2023-02-14T13:14:21;39.63;;;12.40;;
66559;SDS011;53413;49.878;8.142;2023-02-14T13:16:56;42.42;;;11.80;;
66559;SDS011;53413;49.878;8.142;2023-02-14T13:22:23;41.50;;;12.05;;
66559;SDS011;53413;49.878;8.142;2023-02-14T13:24:50;44.78;;;13.63;;
66559;SDS011;53413;49.878;8.142;2023-02-14T13:27:22;43.00;;;12.80;;
66559;SDS011;53413;49.878;8.142;2023-02-14T13:29:51;41.55;;;12.35;;
66559;SDS011;53413;49.878;8.142;2023-02-14T13:32:22;45.92;;;12.98;;
66559;SDS011;53413;49.878;8.142;2023-02-14T13:34:50;44.35;;;12.68;;
66559;SDS011;53413;49.878;8.142;2023-02-14T13:37:19;48.45;;;14.07;;
66559;SDS011;53413;49.878;8.142;2023-02-14T13:39:53;46.50;;;13.17;;
66559;SDS011;53413;49.878;8.142;2023-02-14T13:45:49;49.50;;;13.75;;
66559;SDS011;53413;49.878;8.142;2023-02-14T13:53:29;45.10;;;12.80;;
66559;SDS011;53413;49.878;8.142;2023-02-14T13:55:58;43.63;;;12.43;;
66559;SDS011;53413;49.878;8.142;2023-02-14T13:58:25;43.05;;;12.43;;
66559;SDS011;53413;49.878;8.142;2023-02-14T14:00:51;40.80;;;12.60;;
66559;SDS011;53413;49.878;8.142;2023-02-14T14:10:50;45.88;;;13.05;;
66559;SDS011;53413;49.878;8.142;2023-02-14T14:18:47;36.72;;;10.55;;
66559;SDS011;53413;49.878;8.142;2023-02-14T14:21:14;40.30;;;11.70;;
66559;SDS011;53413;49.878;8.142;2023-02-14T14:24:00;39.10;;;11.93;;
66559;SDS011;53413;49.878;8.142;2023-02-14T14:26:45;41.30;;;11.57;;
66559;SDS011;53413;49.878;8.142;2023-02-14T14:29:21;41.83;;;11.80;;
66559;SDS011;53413;49.878;8.142;2023-02-14T14:31:57;42.17;;;12.18;;
66559;SDS011;53413;49.878;8.142;2023-02-14T14:34:25;38.38;;;12.30;;
66559;SDS011;53413;49.878;8.142;2023-02-14T14:37:01;39.60;;;12.07;;
66559;SDS011;53413;49.878;8.142;2023-02-14T14:39:32;42.10;;;12.95;;
66559;SDS011;53413;49.878;8.142;2023-02-14T14:42:12;38.92;;;11.88;;
66559;SDS011;53413;49.878;8.142;2023-02-14T14:44:44;39.72;;;12.40;;
66559;SDS011;53413;49.878;8.142;2023-02-14T14:47:12;38.13;;;13.30;;
66559;SDS011;53413;49.878;8.142;2023-02-14T14:49:48;38.05;;;11.73;;
66559;SDS011;53413;49.878;8.142;2023-02-14T14:55:15;40.08;;;11.60;;
66559;SDS011;53413;49.878;8.142;2023-02-14T14:57:47;33.72;;;10.70;;
66559;SDS011;53413;49.878;8.142;2023-02-14T15:05:30;35.78;;;11.38;;
66559;SDS011;53413;49.878;8.142;2023-02-14T15:08:12;35.58;;;12.07;;
66559;SDS011;53413;49.878;8.142;2023-02-14T15:10:37;38.72;;;11.82;;
66559;SDS011;53413;49.878;8.142;2023-02-14T15:13:03;37.03;;;11.67;;
66559;SDS011;53413;49.878;8.142;2023-02-14T15:15:48;38.83;;;11.45;;
66559;SDS011;53413;49.878;8.142;2023-02-14T15:18:15;41.67;;;12.48;;
66559;SDS011;53413;49.878;8.142;2023-02-14T15:20:41;36.63;;;11.82;;
66559;SDS011;53413;49.878;8.142;2023-02-14T15:23:13;35.45;;;11.85;;
66559;SDS011;53413;49.878;8.142;2023-02-14T15:25:42;38.97;;;13.47;;
66559;SDS011;53413;49.878;8.142;2023-02-14T15:28:12;41.63;;;14.75;;
66559;SDS011;53413;49.878;8.142;2023-02-14T15:31:03;43.95;;;15.45;;
66559;SDS011;53413;49.878;8.142;2023-02-14T15:33:30;44.55;;;14.05;;
66559;SDS011;53413;49.878;8.142;2023-02-14T15:35:58;39.75;;;13.38;;
66559;SDS011;53413;49.878;8.142;2023-02-14T15:38:27;37.40;;;12.47;;
66559;SDS011;53413;49.878;8.142;2023-02-14T15:40:54;35.40;;;12.13;;
66559;SDS011;53413;49.878;8.142;2023-02-14T15:43:26;37.47;;;11.98;;
66559;SDS011;53413;49.878;8.142;2023-02-14T15:48:51;41.58;;;12.52;;
66559;SDS011;53413;49.878;8.142;2023-02-14T15:51:21;53.87;;;18.53;;
66559;SDS011;53413;49.878;8.142;2023-02-14T15:54:00;46.53;;;13.73;;
66559;SDS011;53413;49.878;8.142;2023-02-14T15:59:02;41.20;;;14.70;;
66559;SDS011;53413;49.878;8.142;2023-02-14T16:01:31;46.63;;;16.90;;
66559;SDS011;53413;49.878;8.142;2023-02-14T16:04:00;50.67;;;17.33;;
66559;SDS011;53413;49.878;8.142;2023-02-14T16:09:03;42.55;;;14.27;;
66559;SDS011;53413;49.878;8.142;2023-02-14T16:11:47;42.35;;;12.85;;
66559;SDS011;53413;49.878;8.142;2023-02-14T16:14:29;43.70;;;14.37;;
66559;SDS011;53413;49.878;8.142;2023-02-14T16:16:56;43.03;;;12.95;;
66559;SDS011;53413;49.878;8.142;2023-02-14T16:22:08;41.17;;;13.10;;
66559;SDS011;53413;49.878;8.142;2023-02-14T16:24:35;43.85;;;12.40;;
66559;SDS011;53413;49.878;8.142;2023-02-14T16:27:01;45.72;;;13.18;;
66559;SDS011;53413;49.878;8.142;2023-02-14T16:29:31;46.20;;;13.82;;
66559;SDS011;53413;49.878;8.142;2023-02-14T16:31:58;42.47;;;13.17;;
66559;SDS011;53413;49.878;8.142;2023-02-14T16:34:24;43.83;;;13.55;;
66559;SDS011;53413;49.878;8.142;2023-02-14T16:36:51;45.22;;;12.98;;
66559;SDS011;53413;49.878;8.142;2023-02-14T16:39:20;46.10;;;13.40;;
66559;SDS011;53413;49.878;8.142;2023-02-14T16:41:48;40.38;;;12.75;;
66559;SDS011;53413;49.878;8.142;2023-02-14T16:44:16;43.25;;;13.27;;
66559;SDS011;53413;49.878;8.142;2023-02-14T16:46:44;48.10;;;14.03;;
66559;SDS011;53413;49.878;8.142;2023-02-14T16:49:10;40.83;;;12.23;;
66559;SDS011;53413;49.878;8.142;2023-02-14T16:51:36;44.40;;;13.35;;
66559;SDS011;53413;49.878;8.142;2023-02-14T16:54:07;43.42;;;13.32;;
66559;SDS011;53413;49.878;8.142;2023-02-14T16:56:52;39.58;;;12.20;;
66559;SDS011;53413;49.878;8.142;2023-02-14T16:59:26;39.07;;;12.30;;
66559;SDS011;53413;49.878;8.142;2023-02-14T17:01:51;41.92;;;12.35;;
66559;SDS011;53413;49.878;8.142;2023-02-14T17:04:17;46.83;;;13.73;;
66559;SDS011;53413;49.878;8.142;2023-02-14T17:06:43;43.17;;;13.03;;
66559;SDS011;53413;49.878;8.142;2023-02-14T17:09:13;42.83;;;13.65;;
66559;SDS011;53413;49.878;8.142;2023-02-14T17:11:45;47.30;;;13.48;;
66559;SDS011;53413;49.878;8.142;2023-02-14T17:14:13;47.77;;;13.80;;
66559;SDS011;53413;49.878;8.142;2023-02-14T17:16:48;48.33;;;13.65;;
66559;SDS011;53413;49.878;8.142;2023-02-14T17:19:15;49.17;;;14.00;;
66559;SDS011;53413;49.878;8.142;2023-02-14T17:21:41;46.30;;;14.00;;
66559;SDS011;53413;49.878;8.142;2023-02-14T17:24:07;45.70;;;13.73;;
66559;SDS011;53413;49.878;8.142;2023-02-14T17:26:32;44.73;;;13.13;;
66559;SDS011;53413;49.878;8.142;2023-02-14T17:28:58;46.93;;;14.30;;
66559;SDS011;53413;49.878;8.142;2023-02-14T17:31:23;48.93;;;14.70;;
66559;SDS011;53413;49.878;8.142;2023-02-14T17:33:49;45.40;;;13.80;;